Time;durP1;ratioP1;P1;durP2;ratioP2;P2;SDS_P1;SDS_P2;PMS_P1;PMS_P2;Temp;Humidity;BMP_temperature;BMP_pressure;BME280_temperature;BME280_humidity;BME280_pressure;Samples;Min_cycle;Max_cycle;Signal;HPM_P1;HPM_P2
2023/05/16 00:00:47;;;;;;;;;;;;;;;18.57;nan;100857.56;5016941;28;20392;-82
2023/05/16 00:03:13;;;;;;;;;;;;;;;18.52;nan;100859.56;5021925;28;19948;-82
2023/05/16 00:05:39;;;;;;;;;;;;;;;18.50;nan;100859.06;5019964;28;19920;-82
2023/05/16 00:08:04;;;;;;;;;;;;;;;18.47;nan;100859.63;5019491;28;20659;-82
2023/05/16 00:10:30;;;;;;;;;;;;;;;18.46;nan;100866.16;5016869;28;20192;-83
2023/05/16 00:12:56;;;;;;;;;;;;;;;18.42;nan;100865.94;5019253;28;19926;-82
2023/05/16 00:15:22;;;;;;;;;;;;;;;18.38;nan;100863.03;5019747;28;19921;-82
2023/05/16 00:17:48;;;;;;;;;;;;;;;18.34;nan;100870.16;5023472;28;19917;-83
2023/05/16 00:20:16;;;;;;;;;;;;;;;18.27;nan;100864.28;5021497;28;19929;-82
2023/05/16 00:22:41;;;;;;;;;;;;;;;18.21;nan;100870.13;5018575;28;19929;-82
2023/05/16 00:25:08;;;;;;;;;;;;;;;18.14;nan;100870.50;5019816;28;20277;-83
2023/05/16 00:27:34;;;;;;;;;;;;;;;18.09;nan;100865.13;5021009;28;19925;-83
2023/05/16 00:30:00;;;;;;;;;;;;;;;18.03;nan;100864.41;5019086;28;19979;-82
2023/05/16 00:32:25;;;;;;;;;;;;;;;18.00;nan;100865.00;5018437;28;20340;-82
2023/05/16 00:34:51;;;;;;;;;;;;;;;17.96;nan;100865.91;5015263;28;20010;-82
2023/05/16 00:37:16;;;;;;;;;;;;;;;17.91;nan;100872.19;5014831;28;19921;-82
2023/05/16 00:39:41;;;;;;;;;;;;;;;17.87;nan;100871.16;5016341;28;19971;-82
2023/05/16 00:42:07;;;;;;;;;;;;;;;17.84;nan;100870.94;5019647;28;19929;-82
2023/05/16 00:44:32;;;;;;;;;;;;;;;17.80;nan;100870.75;5018058;28;20377;-82
2023/05/16 00:46:59;;;;;;;;;;;;;;;17.76;nan;100869.69;5019823;28;19924;-82
2023/05/16 00:49:24;;;;;;;;;;;;;;;17.73;nan;100873.78;5023081;28;20361;-82
2023/05/16 00:51:50;;;;;;;;;;;;;;;17.71;nan;100873.28;5022643;28;20011;-82
2023/05/16 00:54:16;;;;;;;;;;;;;;;17.70;nan;100870.88;5018332;28;20192;-82
2023/05/16 00:56:41;;;;;;;;;;;;;;;17.67;nan;100872.22;5018730;28;19928;-82
2023/05/16 00:59:06;;;;;;;;;;;;;;;17.61;nan;100873.41;5016483;28;20332;-82
2023/05/16 01:01:32;;;;;;;;;;;;;;;17.58;nan;100868.56;5020068;28;19963;-82
2023/05/16 01:03:59;;;;;;;;;;;;;;;17.56;nan;100870.75;5022019;28;19952;-82
2023/05/16 01:06:25;;;;;;;;;;;;;;;17.55;nan;100876.47;5019565;28;19921;-82
2023/05/16 01:08:50;;;;;;;;;;;;;;;17.52;nan;100875.16;5017660;28;19917;-82
2023/05/16 01:11:51;;;;;;;;;;;;;;;17.50;nan;100871.94;5019454;28;19925;-82
2023/05/16 01:14:22;;;;;;;;;;;;;;;17.45;nan;100864.69;4961664;28;20442;-83
2023/05/16 01:16:48;;;;;;;;;;;;;;;17.43;nan;100876.91;5010196;28;20003;-82
2023/05/16 01:19:31;;;;;;;;;;;;;;;17.39;nan;100876.66;5016607;28;20554;-82
2023/05/16 01:22:01;;;;;;;;;;;;;;;17.35;nan;100878.34;5031029;28;20255;-82
2023/05/16 01:24:34;;;;;;;;;;;;;;;17.31;nan;100876.50;5021822;28;19917;-82
2023/05/16 01:26:59;;;;;;;;;;;;;;;17.25;nan;100883.91;5021398;28;20276;-82
2023/05/16 01:29:24;;;;;;;;;;;;;;;17.20;nan;100878.50;5013231;28;19921;-82
2023/05/16 01:31:50;;;;;;;;;;;;;;;17.14;nan;100877.78;5013791;28;20381;-82
2023/05/16 01:34:15;;;;;;;;;;;;;;;17.11;nan;100881.06;5020786;28;20375;-82
2023/05/16 01:36:53;;;;;;;;;;;;;;;17.08;nan;100881.66;5019344;28;19921;-82
2023/05/16 01:39:19;;;;;;;;;;;;;;;17.04;nan;100880.59;5015791;28;19925;-82
2023/05/16 01:41:51;;;;;;;;;;;;;;;17.01;nan;100892.00;5013490;28;19917;-82
2023/05/16 01:44:27;;;;;;;;;;;;;;;16.99;nan;100888.78;5019544;28;20297;-82
2023/05/16 01:46:55;;;;;;;;;;;;;;;16.95;nan;100887.75;5016446;28;19925;-82
2023/05/16 01:49:27;;;;;;;;;;;;;;;16.91;nan;100886.72;5022024;28;19917;-82
2023/05/16 01:52:00;;;;;;;;;;;;;;;16.89;nan;100891.59;5014108;28;19925;-82
2023/05/16 01:54:29;;;;;;;;;;;;;;;16.85;nan;100899.47;5016447;28;19920;-82
2023/05/16 01:56:55;;;;;;;;;;;;;;;16.83;nan;100895.44;5021632;28;19956;-82
2023/05/16 01:59:21;;;;;;;;;;;;;;;16.79;nan;100888.97;5018542;28;20388;-82
2023/05/16 02:01:47;;;;;;;;;;;;;;;16.73;nan;100895.56;5014672;28;19924;-82
2023/05/16 02:04:14;;;;;;;;;;;;;;;16.68;nan;100890.16;5012774;28;19995;-82
2023/05/16 02:06:39;;;;;;;;;;;;;;;16.61;nan;100893.19;5019509;28;20682;-82
2023/05/16 02:09:05;;;;;;;;;;;;;;;16.56;nan;100899.44;5016574;28;19963;-82
2023/05/16 02:11:30;;;;;;;;;;;;;;;16.52;nan;100901.13;5015738;28;20416;-82
2023/05/16 02:13:55;;;;;;;;;;;;;;;16.50;nan;100899.75;5012995;28;20753;-82
2023/05/16 02:16:21;;;;;;;;;;;;;;;16.52;nan;100911.13;5015859;28;20789;-82
2023/05/16 02:18:47;;;;;;;;;;;;;;;16.51;nan;100904.06;5016464;28;20326;-82
2023/05/16 02:21:12;;;;;;;;;;;;;;;16.46;nan;100912.25;5017372;28;20393;-82
2023/05/16 02:23:37;;;;;;;;;;;;;;;16.42;nan;100917.41;5018106;28;19945;-82
2023/05/16 02:26:03;;;;;;;;;;;;;;;16.39;nan;100917.19;5014216;28;19926;-82
2023/05/16 02:28:28;;;;;;;;;;;;;;;16.33;nan;100919.91;5018977;28;19917;-82
2023/05/16 02:30:57;;;;;;;;;;;;;;;16.26;nan;100915.91;5016441;28;19925;-83
2023/05/16 02:33:23;;;;;;;;;;;;;;;16.21;nan;100918.66;5018765;28;20035;-82
2023/05/16 02:35:49;;;;;;;;;;;;;;;16.14;nan;100916.25;5015757;28;19925;-82
2023/05/16 02:38:16;;;;;;;;;;;;;;;16.09;nan;100929.81;5015050;28;19928;-83
2023/05/16 02:40:41;;;;;;;;;;;;;;;16.07;nan;100936.59;5021252;28;19924;-82
2023/05/16 02:43:07;;;;;;;;;;;;;;;16.04;nan;100932.56;5021995;28;19929;-82
2023/05/16 02:45:32;;;;;;;;;;;;;;;16.04;nan;100934.44;5020880;28;19959;-82
2023/05/16 02:47:57;;;;;;;;;;;;;;;16.04;nan;100931.75;5015717;28;20572;-82
2023/05/16 02:50:23;;;;;;;;;;;;;;;16.04;nan;100935.25;5019379;28;19921;-82
2023/05/16 02:52:48;;;;;;;;;;;;;;;16.02;nan;100938.25;5020352;28;19921;-82
2023/05/16 02:55:13;;;;;;;;;;;;;;;16.00;nan;100947.72;5017758;28;19917;-82
2023/05/16 02:57:39;;;;;;;;;;;;;;;15.94;nan;100944.22;5013326;28;19995;-82
2023/05/16 03:00:05;;;;;;;;;;;;;;;15.92;nan;100957.19;5017601;28;19917;-82
2023/05/16 03:02:30;;;;;;;;;;;;;;;15.92;nan;100962.59;5019033;28;20171;-83
2023/05/16 03:04:55;;;;;;;;;;;;;;;15.92;nan;100961.81;5020833;28;19932;-83
2023/05/16 03:07:21;;;;;;;;;;;;;;;15.86;nan;100966.44;5020006;28;20317;-82
2023/05/16 03:09:46;;;;;;;;;;;;;;;15.83;nan;100974.28;5013796;28;22019;-82
2023/05/16 03:12:11;;;;;;;;;;;;;;;15.82;nan;100975.38;5018239;28;19921;-83
2023/05/16 03:14:37;;;;;;;;;;;;;;;15.81;nan;100971.88;5021290;28;19925;-82
2023/05/16 03:17:02;;;;;;;;;;;;;;;15.84;nan;100981.31;5020873;28;20007;-82
2023/05/16 03:19:27;;;;;;;;;;;;;;;15.85;nan;100989.13;5018211;28;19960;-82
2023/05/16 03:21:53;;;;;;;;;;;;;;;15.83;nan;100994.00;5014888;28;20369;-83
2023/05/16 03:24:20;;;;;;;;;;;;;;;15.82;nan;100989.69;5017583;28;19917;-83
2023/05/16 03:26:45;;;;;;;;;;;;;;;15.82;nan;100995.09;5019866;28;20015;-82
2023/05/16 03:29:11;;;;;;;;;;;;;;;15.81;nan;100981.88;5016836;28;20392;-83
2023/05/16 03:31:36;;;;;;;;;;;;;;;15.76;nan;100995.38;5017165;28;19932;-83
2023/05/16 03:34:02;;;;;;;;;;;;;;;15.71;nan;100993.50;5017970;28;19928;-82
2023/05/16 03:36:28;;;;;;;;;;;;;;;15.70;nan;100997.28;5019215;28;19999;-83
2023/05/16 03:38:53;;;;;;;;;;;;;;;15.73;nan;101002.16;5017790;28;19917;-82
2023/05/16 03:41:18;;;;;;;;;;;;;;;15.74;nan;101003.75;5014519;28;19921;-82
2023/05/16 03:43:43;;;;;;;;;;;;;;;15.76;nan;101000.78;5013515;28;20304;-82
2023/05/16 03:46:09;;;;;;;;;;;;;;;15.77;nan;101010.50;5022386;28;20400;-82
2023/05/16 03:48:34;;;;;;;;;;;;;;;15.77;nan;101008.59;5022595;28;19925;-82
2023/05/16 03:50:59;;;;;;;;;;;;;;;15.78;nan;101010.22;5022863;28;19936;-82
2023/05/16 03:53:25;;;;;;;;;;;;;;;15.83;nan;101012.91;5021198;28;19960;-83
2023/05/16 03:55:50;;;;;;;;;;;;;;;15.87;nan;101018.56;5020276;28;19965;-82
2023/05/16 03:58:16;;;;;;;;;;;;;;;15.91;nan;101015.03;5023437;28;19925;-83
2023/05/16 04:00:41;;;;;;;;;;;;;;;16.00;nan;101012.59;5019004;28;19987;-82
2023/05/16 04:03:07;;;;;;;;;;;;;;;16.11;nan;101018.72;5016409;28;19991;-82
2023/05/16 04:05:33;;;;;;;;;;;;;;;16.24;nan;101020.81;5017613;28;19924;-82
2023/05/16 04:07:58;;;;;;;;;;;;;;;16.39;nan;101026.16;5017723;28;19917;-82
2023/05/16 04:10:23;;;;;;;;;;;;;;;16.52;nan;101024.72;5017871;28;19917;-82
2023/05/16 04:12:49;;;;;;;;;;;;;;;16.60;nan;101027.63;5017138;28;19917;-82
2023/05/16 04:15:14;;;;;;;;;;;;;;;16.65;nan;101042.19;5021466;28;19987;-82
2023/05/16 04:17:39;;;;;;;;;;;;;;;16.69;nan;101040.56;5021750;28;19968;-82
2023/05/16 04:20:05;;;;;;;;;;;;;;;16.74;nan;101040.56;5021680;28;21558;-82
2023/05/16 04:22:31;;;;;;;;;;;;;;;16.84;nan;101043.19;5015674;28;19929;-82
2023/05/16 04:24:57;;;;;;;;;;;;;;;16.95;nan;101035.78;5016244;28;19944;-82
2023/05/16 04:27:22;;;;;;;;;;;;;;;17.02;nan;101045.19;5023235;28;19921;-82
2023/05/16 04:29:48;;;;;;;;;;;;;;;17.09;nan;101050.31;5021433;28;20793;-82
2023/05/16 04:32:14;;;;;;;;;;;;;;;17.15;nan;101057.28;5017390;28;19994;-83
2023/05/16 04:34:39;;;;;;;;;;;;;;;17.20;nan;101052.63;5013451;28;19922;-82
2023/05/16 04:37:06;;;;;;;;;;;;;;;17.29;nan;101044.69;5021109;28;19925;-81
2023/05/16 04:39:32;;;;;;;;;;;;;;;17.33;nan;101055.75;5020728;28;19933;-82
2023/05/16 04:41:58;;;;;;;;;;;;;;;17.37;nan;101059.50;5024034;28;19929;-82
2023/05/16 04:44:23;;;;;;;;;;;;;;;17.44;nan;101051.88;5019493;28;19963;-82
2023/05/16 04:46:49;;;;;;;;;;;;;;;17.57;nan;101067.44;5017256;28;20015;-82
2023/05/16 04:49:15;;;;;;;;;;;;;;;17.67;nan;101063.81;5022050;28;19929;-82
2023/05/16 04:51:40;;;;;;;;;;;;;;;17.75;nan;101061.28;5018338;28;19940;-84
2023/05/16 04:54:07;;;;;;;;;;;;;;;17.84;nan;101064.19;5019791;28;19926;-84
2023/05/16 04:56:33;;;;;;;;;;;;;;;17.91;nan;101066.53;5017737;28;20369;-84
2023/05/16 04:58:58;;;;;;;;;;;;;;;17.95;nan;101068.38;5020580;28;20051;-84
2023/05/16 05:01:23;;;;;;;;;;;;;;;17.96;nan;101069.22;5020885;28;19928;-83
2023/05/16 05:03:49;;;;;;;;;;;;;;;17.98;nan;101072.44;5021584;28;19932;-83
2023/05/16 05:06:14;;;;;;;;;;;;;;;18.05;nan;101076.41;5023435;28;20308;-83
2023/05/16 05:08:40;;;;;;;;;;;;;;;18.12;nan;101079.56;5015153;28;20288;-83
2023/05/16 05:11:05;;;;;;;;;;;;;;;18.10;nan;101079.03;5014586;28;19917;-84
2023/05/16 05:13:30;;;;;;;;;;;;;;;18.18;nan;101096.59;5019263;28;20164;-83
2023/05/16 05:15:55;;;;;;;;;;;;;;;18.27;nan;101092.13;5019458;28;20059;-84
2023/05/16 05:18:21;;;;;;;;;;;;;;;18.35;nan;101094.22;5023623;28;19929;-84
2023/05/16 05:20:46;;;;;;;;;;;;;;;18.37;nan;101096.63;5020933;28;19925;-85
2023/05/16 05:23:12;;;;;;;;;;;;;;;18.41;nan;101095.75;5019322;28;20369;-85
2023/05/16 05:25:38;;;;;;;;;;;;;;;18.49;nan;101099.72;5020722;28;19951;-85
2023/05/16 05:28:03;;;;;;;;;;;;;;;18.55;nan;101106.69;5023848;28;19968;-85
2023/05/16 05:30:28;;;;;;;;;;;;;;;18.64;nan;101112.28;5024130;28;19956;-85
2023/05/16 05:32:54;;;;;;;;;;;;;;;18.61;nan;101113.66;5020227;28;19921;-85
2023/05/16 05:35:19;;;;;;;;;;;;;;;18.65;nan;101120.13;5024593;28;20020;-84
2023/05/16 05:37:45;;;;;;;;;;;;;;;18.71;nan;101126.31;5022258;28;19951;-83
2023/05/16 05:40:10;;;;;;;;;;;;;;;18.77;nan;101133.28;5019435;28;20096;-85
2023/05/16 05:42:36;;;;;;;;;;;;;;;18.80;nan;101132.69;5019707;28;20457;-84
2023/05/16 05:45:01;;;;;;;;;;;;;;;18.83;nan;101132.09;5021402;28;19920;-84
2023/05/16 05:47:26;;;;;;;;;;;;;;;18.89;nan;101135.56;5021252;28;19928;-84
2023/05/16 05:49:52;;;;;;;;;;;;;;;18.92;nan;101141.19;5022357;28;19975;-84
2023/05/16 05:52:17;;;;;;;;;;;;;;;19.00;nan;101139.72;5023618;28;19986;-84
2023/05/16 05:54:42;;;;;;;;;;;;;;;19.09;nan;101142.59;5016585;28;19931;-83
2023/05/16 05:57:08;;;;;;;;;;;;;;;19.16;nan;101149.25;5021408;28;19924;-83
2023/05/16 05:59:33;;;;;;;;;;;;;;;19.19;nan;101147.84;5024526;28;20051;-82
2023/05/16 06:01:58;;;;;;;;;;;;;;;19.22;nan;101148.09;5024290;28;19917;-82
2023/05/16 06:04:24;;;;;;;;;;;;;;;19.25;nan;101144.78;5023909;28;19917;-82
2023/05/16 06:06:49;;;;;;;;;;;;;;;19.26;nan;101145.56;5023136;28;19927;-83
2023/05/16 06:09:15;;;;;;;;;;;;;;;19.30;nan;101160.19;5022207;28;20029;-82
2023/05/16 06:11:41;;;;;;;;;;;;;;;19.27;nan;101158.06;5020690;28;19996;-82
2023/05/16 06:14:06;;;;;;;;;;;;;;;19.36;nan;101169.84;5023976;28;20398;-83
2023/05/16 06:16:32;;;;;;;;;;;;;;;19.40;nan;101165.47;5023607;28;19971;-83
2023/05/16 06:18:57;;;;;;;;;;;;;;;19.52;nan;101171.22;5024902;28;19921;-84
2023/05/16 06:21:23;;;;;;;;;;;;;;;19.63;nan;101176.53;5024009;28;20373;-83
2023/05/16 06:23:48;;;;;;;;;;;;;;;19.72;nan;101175.53;5019490;28;19921;-84
2023/05/16 06:26:13;;;;;;;;;;;;;;;19.79;nan;101175.16;5017939;28;20496;-84
2023/05/16 06:28:39;;;;;;;;;;;;;;;19.79;nan;101191.47;5020644;28;19921;-84
2023/05/16 06:31:04;;;;;;;;;;;;;;;19.82;nan;101190.84;5018956;28;20447;-85
2023/05/16 06:33:30;;;;;;;;;;;;;;;19.89;nan;101199.41;5026612;28;20344;-86
2023/05/16 06:35:55;;;;;;;;;;;;;;;19.94;nan;101204.78;5024154;28;19945;-83
2023/05/16 06:38:20;;;;;;;;;;;;;;;19.95;nan;101200.97;5022232;28;19917;-83
2023/05/16 06:40:46;;;;;;;;;;;;;;;19.95;nan;101205.59;5015068;28;20000;-82
2023/05/16 06:43:11;;;;;;;;;;;;;;;19.91;nan;101199.94;5020876;28;20281;-82
2023/05/16 06:45:37;;;;;;;;;;;;;;;19.86;nan;101209.00;5021390;28;19932;-82
2023/05/16 06:48:02;;;;;;;;;;;;;;;19.77;nan;101210.78;5022188;28;20455;-81
2023/05/16 06:50:28;;;;;;;;;;;;;;;19.79;nan;101218.66;5022800;28;19925;-82
2023/05/16 06:52:53;;;;;;;;;;;;;;;19.82;nan;101220.78;5019732;28;20412;-82
2023/05/16 06:55:19;;;;;;;;;;;;;;;19.83;nan;101219.66;5022993;28;20455;-83
2023/05/16 06:57:44;;;;;;;;;;;;;;;19.87;nan;101223.38;5021671;28;20016;-83
2023/05/16 07:00:10;;;;;;;;;;;;;;;19.94;nan;101234.72;5017771;28;19925;-82
2023/05/16 07:02:36;;;;;;;;;;;;;;;19.92;nan;101237.69;5018689;28;19925;-82
2023/05/16 07:05:01;;;;;;;;;;;;;;;19.86;nan;101235.38;5021663;28;20314;-84
2023/05/16 07:07:26;;;;;;;;;;;;;;;19.74;nan;101238.56;5017065;28;19917;-83
2023/05/16 07:09:52;;;;;;;;;;;;;;;19.56;nan;101242.13;5020994;28;21015;-81
2023/05/16 07:12:17;;;;;;;;;;;;;;;19.47;nan;101254.75;5016699;28;19929;-84
2023/05/16 07:14:42;;;;;;;;;;;;;;;19.38;nan;101262.72;5016807;28;19925;-84
2023/05/16 07:17:08;;;;;;;;;;;;;;;19.32;nan;101264.72;5021728;28;19917;-83
2023/05/16 07:19:33;;;;;;;;;;;;;;;19.28;nan;101260.19;5022783;28;19929;-83
2023/05/16 07:21:58;;;;;;;;;;;;;;;19.29;nan;101259.88;5024383;28;19951;-83
2023/05/16 07:24:24;;;;;;;;;;;;;;;19.25;nan;101274.38;5025158;28;19999;-82
2023/05/16 07:26:49;;;;;;;;;;;;;;;19.16;nan;101265.25;5024742;28;20389;-82
2023/05/16 07:29:15;;;;;;;;;;;;;;;19.10;nan;101266.41;5020869;28;20007;-82
2023/05/16 07:31:40;;;;;;;;;;;;;;;19.10;nan;101269.13;5023758;28;19924;-82
2023/05/16 07:34:05;;;;;;;;;;;;;;;19.13;nan;101276.69;5027791;28;20366;-83
2023/05/16 07:36:31;;;;;;;;;;;;;;;19.18;nan;101279.31;5025048;28;20008;-83
2023/05/16 07:38:56;;;;;;;;;;;;;;;19.00;nan;101281.72;5016365;28;19927;-83
2023/05/16 07:41:21;;;;;;;;;;;;;;;19.04;nan;101286.59;5028658;28;19963;-83
2023/05/16 07:43:47;;;;;;;;;;;;;;;19.06;nan;101281.69;5025309;28;20289;-81
2023/05/16 07:46:13;;;;;;;;;;;;;;;19.09;nan;101284.63;5026366;28;20015;-82
2023/05/16 07:48:38;;;;;;;;;;;;;;;19.12;nan;101297.63;5022938;28;19944;-82
2023/05/16 07:51:03;;;;;;;;;;;;;;;19.18;nan;101298.34;5025355;28;20311;-82
2023/05/16 07:53:29;;;;;;;;;;;;;;;19.16;nan;101308.69;5019417;28;19924;-84
2023/05/16 07:55:55;;;;;;;;;;;;;;;19.10;nan;101316.13;5019452;28;19920;-83
2023/05/16 07:58:20;;;;;;;;;;;;;;;19.06;nan;101325.13;5012120;28;19933;-83
2023/05/16 08:00:46;;;;;;;;;;;;;;;19.10;nan;101326.16;5023947;28;19917;-83
2023/05/16 08:03:11;;;;;;;;;;;;;;;19.03;nan;101326.53;5015669;28;19939;-82
2023/05/16 08:05:36;;;;;;;;;;;;;;;19.01;nan;101337.66;5026004;28;20007;-82
2023/05/16 08:08:02;;;;;;;;;;;;;;;18.96;nan;101337.72;5023197;28;19927;-82
2023/05/16 08:10:27;;;;;;;;;;;;;;;18.93;nan;101338.31;5023479;28;20137;-81
2023/05/16 08:12:53;;;;;;;;;;;;;;;18.97;nan;101342.06;5021379;28;19978;-83
2023/05/16 08:15:18;;;;;;;;;;;;;;;18.91;nan;101348.66;5025895;28;20136;-82
2023/05/16 08:17:44;;;;;;;;;;;;;;;18.90;nan;101349.75;5020828;28;19917;-84
2023/05/16 08:20:10;;;;;;;;;;;;;;;18.83;nan;101343.84;5023668;28;19920;-82
2023/05/16 08:22:35;;;;;;;;;;;;;;;18.76;nan;101351.53;5027090;28;19921;-83
2023/05/16 08:25:00;;;;;;;;;;;;;;;18.82;nan;101353.09;5022386;28;19929;-83
2023/05/16 08:27:26;;;;;;;;;;;;;;;18.80;nan;101354.47;5021474;28;19926;-82
2023/05/16 08:29:52;;;;;;;;;;;;;;;18.90;nan;101351.66;5020979;28;19925;-82
2023/05/16 08:32:17;;;;;;;;;;;;;;;18.88;nan;101356.56;5021224;28;19917;-83
2023/05/16 08:34:42;;;;;;;;;;;;;;;18.89;nan;101369.06;5015643;28;19921;-82
2023/05/16 08:37:09;;;;;;;;;;;;;;;18.89;nan;101366.34;5018301;28;19925;-82
2023/05/16 08:39:34;;;;;;;;;;;;;;;18.91;nan;101367.66;5019010;28;19917;-84
2023/05/16 08:41:59;;;;;;;;;;;;;;;18.87;nan;101372.06;5022180;28;20398;-81
2023/05/16 08:44:25;;;;;;;;;;;;;;;18.89;nan;101364.44;5016266;28;20019;-81
2023/05/16 08:46:51;;;;;;;;;;;;;;;18.89;nan;101364.44;5019186;28;19937;-82
2023/05/16 08:49:17;;;;;;;;;;;;;;;18.90;nan;101370.66;5026288;28;20062;-81
2023/05/16 08:51:45;;;;;;;;;;;;;;;18.92;nan;101365.75;5018303;28;20422;-81
2023/05/16 08:54:12;;;;;;;;;;;;;;;19.02;nan;101371.88;5023097;28;19923;-83
2023/05/16 08:56:37;;;;;;;;;;;;;;;19.04;nan;101374.31;5023671;28;20016;-81
2023/05/16 08:59:03;;;;;;;;;;;;;;;19.02;nan;101380.00;5033235;28;20666;-82
2023/05/16 09:01:29;;;;;;;;;;;;;;;19.05;nan;101386.00;5022157;28;19917;-83
2023/05/16 09:03:55;;;;;;;;;;;;;;;19.10;nan;101394.88;5017084;28;20372;-84
2023/05/16 09:06:20;;;;;;;;;;;;;;;19.06;nan;101384.88;5020396;28;19960;-82
2023/05/16 09:08:45;;;;;;;;;;;;;;;19.00;nan;101382.22;5015599;28;20328;-82
2023/05/16 09:11:11;;;;;;;;;;;;;;;18.98;nan;101378.16;5019870;28;19921;-82
2023/05/16 09:13:37;;;;;;;;;;;;;;;18.97;nan;101393.66;5023468;28;19921;-83
2023/05/16 09:16:13;;;;;;;;;;;;;;;18.97;nan;101390.94;5022573;28;19940;-82
2023/05/16 09:18:39;;;;;;;;;;;;;;;18.99;nan;101396.88;5022135;28;20299;-82
2023/05/16 09:21:05;;;;;;;;;;;;;;;18.94;nan;101399.66;5022018;28;19921;-81
2023/05/16 09:23:31;;;;;;;;;;;;;;;18.88;nan;101400.81;5023942;28;19936;-82
2023/05/16 09:25:57;;;;;;;;;;;;;;;18.90;nan;101392.41;5023100;28;19925;-83
2023/05/16 09:28:22;;;;;;;;;;;;;;;18.95;nan;101401.28;5025862;28;19944;-83
2023/05/16 09:30:48;;;;;;;;;;;;;;;18.93;nan;101392.63;5022581;28;19921;-81
2023/05/16 09:33:13;;;;;;;;;;;;;;;18.82;nan;101403.88;5024206;28;19927;-81
2023/05/16 09:35:39;;;;;;;;;;;;;;;18.76;nan;101392.25;5023070;28;19936;-82
2023/05/16 09:38:04;;;;;;;;;;;;;;;18.76;nan;101391.44;5023815;28;20388;-82
2023/05/16 09:40:29;;;;;;;;;;;;;;;18.81;nan;101394.91;5022603;28;19940;-82
2023/05/16 09:43:05;;;;;;;;;;;;;;;18.76;nan;101396.88;5018704;28;19932;-82
2023/05/16 09:45:31;;;;;;;;;;;;;;;18.75;nan;101401.50;5026113;28;20076;-82
2023/05/16 09:48:01;;;;;;;;;;;;;;;18.68;nan;101398.31;5023593;28;19967;-82
2023/05/16 09:50:26;;;;;;;;;;;;;;;18.68;nan;101393.69;5024016;28;19923;-82
2023/05/16 09:52:52;;;;;;;;;;;;;;;18.74;nan;101402.59;5022729;28;19917;-81
2023/05/16 09:55:17;;;;;;;;;;;;;;;18.78;nan;101406.34;5020407;28;19921;-81
2023/05/16 09:57:42;;;;;;;;;;;;;;;18.84;nan;101418.75;5023087;28;19918;-82
2023/05/16 10:00:12;;;;;;;;;;;;;;;18.90;nan;101412.22;5023339;28;21303;-82
2023/05/16 10:02:38;;;;;;;;;;;;;;;18.83;nan;101419.06;5023851;28;20385;-82
2023/05/16 10:05:04;;;;;;;;;;;;;;;18.83;nan;101421.78;5022045;28;19983;-83
2023/05/16 10:07:31;;;;;;;;;;;;;;;18.81;nan;101432.91;5021296;28;19921;-81
2023/05/16 10:09:57;;;;;;;;;;;;;;;18.82;nan;101434.53;5020850;28;19921;-81
2023/05/16 10:12:28;;;;;;;;;;;;;;;18.88;nan;101446.19;5020498;28;19986;-80
2023/05/16 10:14:54;;;;;;;;;;;;;;;18.83;nan;101454.34;5023586;28;19994;-81
2023/05/16 10:17:19;;;;;;;;;;;;;;;18.81;nan;101448.41;5024514;28;20377;-82
2023/05/16 10:19:46;;;;;;;;;;;;;;;18.85;nan;101457.59;5022373;28;20051;-81
2023/05/16 10:22:12;;;;;;;;;;;;;;;18.85;nan;101461.13;5023318;28;19921;-81
2023/05/16 10:24:59;;;;;;;;;;;;;;;18.86;nan;101468.19;5024615;28;19971;-83
2023/05/16 10:27:25;;;;;;;;;;;;;;;18.82;nan;101475.25;5024354;28;19963;-82
2023/05/16 10:29:51;;;;;;;;;;;;;;;18.83;nan;101468.72;5016060;28;19924;-81
2023/05/16 10:32:17;;;;;;;;;;;;;;;18.83;nan;101476.06;5017967;28;20404;-82
2023/05/16 10:34:43;;;;;;;;;;;;;;;18.82;nan;101483.41;5012967;28;19921;-82
2023/05/16 10:37:09;;;;;;;;;;;;;;;18.87;nan;101475.25;5018520;28;19925;-82
2023/05/16 10:39:35;;;;;;;;;;;;;;;18.92;nan;101483.31;5016644;28;19931;-83
2023/05/16 10:42:00;;;;;;;;;;;;;;;18.92;nan;101488.75;5014375;28;19932;-82
2023/05/16 10:44:25;;;;;;;;;;;;;;;18.88;nan;101487.72;5020328;28;19928;-81
2023/05/16 10:46:51;;;;;;;;;;;;;;;18.89;nan;101486.63;5016092;28;20071;-80
2023/05/16 10:49:20;;;;;;;;;;;;;;;18.97;nan;101483.28;5017592;28;19921;-82
2023/05/16 10:51:51;;;;;;;;;;;;;;;18.95;nan;101485.47;5018701;28;19921;-82
2023/05/16 10:54:21;;;;;;;;;;;;;;;18.98;nan;101484.88;5013644;28;19928;-82
2023/05/16 10:56:54;;;;;;;;;;;;;;;19.09;nan;101484.81;5015497;28;19927;-83
2023/05/16 10:59:24;;;;;;;;;;;;;;;19.10;nan;101484.50;5016427;28;20003;-82
2023/05/16 11:01:55;;;;;;;;;;;;;;;19.09;nan;101492.94;5017322;28;19995;-82
2023/05/16 11:04:20;;;;;;;;;;;;;;;19.10;nan;101489.94;5020537;28;19979;-82
2023/05/16 11:06:49;;;;;;;;;;;;;;;19.15;nan;101480.94;5017817;28;20292;-82
2023/05/16 11:09:18;;;;;;;;;;;;;;;19.23;nan;101483.03;5017252;28;19925;-82
2023/05/16 11:11:46;;;;;;;;;;;;;;;19.23;nan;101489.28;5010916;28;19925;-81
2023/05/16 11:14:28;;;;;;;;;;;;;;;19.21;nan;101483.31;5021134;28;20012;-81
2023/05/16 11:16:59;;;;;;;;;;;;;;;19.26;nan;101482.44;5015088;28;20420;-82
2023/05/16 11:19:48;;;;;;;;;;;;;;;19.24;nan;101490.88;5016127;28;19921;-81
2023/05/16 11:22:16;;;;;;;;;;;;;;;19.20;nan;101491.72;5014887;28;20269;-80
2023/05/16 11:24:48;;;;;;;;;;;;;;;19.17;nan;101495.03;5017219;28;20024;-81
2023/05/16 11:27:19;;;;;;;;;;;;;;;19.16;nan;101494.22;5020724;28;19927;-81
2023/05/16 11:29:45;;;;;;;;;;;;;;;19.22;nan;101498.53;5023519;28;19921;-82
2023/05/16 11:32:11;;;;;;;;;;;;;;;19.23;nan;101502.84;5025523;28;20340;-82
2023/05/16 11:34:38;;;;;;;;;;;;;;;19.27;nan;101505.81;5017673;28;20296;-80
2023/05/16 11:37:04;;;;;;;;;;;;;;;19.38;nan;101501.84;5023392;28;19929;-80
2023/05/16 11:39:30;;;;;;;;;;;;;;;19.53;nan;101496.25;5025151;28;19928;-80
2023/05/16 11:41:56;;;;;;;;;;;;;;;19.61;nan;101495.66;5022781;28;19921;-78
2023/05/16 11:44:21;;;;;;;;;;;;;;;19.75;nan;101484.06;5022247;28;19952;-78
2023/05/16 11:46:46;;;;;;;;;;;;;;;19.86;nan;101489.09;5020981;28;19920;-79
2023/05/16 11:49:12;;;;;;;;;;;;;;;19.94;nan;101489.53;5023426;28;20020;-81
2023/05/16 11:51:38;;;;;;;;;;;;;;;20.02;nan;101495.13;5023852;28;20381;-81
2023/05/16 11:54:06;;;;;;;;;;;;;;;20.12;nan;101497.72;5020817;28;19982;-80
2023/05/16 11:56:34;;;;;;;;;;;;;;;20.11;nan;101490.66;5024068;28;19925;-78
2023/05/16 11:58:59;;;;;;;;;;;;;;;20.02;nan;101484.25;5021683;28;19936;-80
2023/05/16 12:01:30;;;;;;;;;;;;;;;20.00;nan;101491.91;5023067;28;19921;-78
2023/05/16 12:03:56;;;;;;;;;;;;;;;19.99;nan;101503.88;5021815;28;19929;-79
2023/05/16 12:06:22;;;;;;;;;;;;;;;19.98;nan;101501.44;5026408;28;20309;-82
2023/05/16 12:08:51;;;;;;;;;;;;;;;19.99;nan;101517.47;5024066;28;19917;-81
2023/05/16 12:11:16;;;;;;;;;;;;;;;20.07;nan;101516.81;5036212;28;19927;-81
2023/05/16 12:13:42;;;;;;;;;;;;;;;20.13;nan;101518.38;5022367;28;20356;-78
2023/05/16 12:16:07;;;;;;;;;;;;;;;20.11;nan;101526.03;5025338;28;19921;-81
2023/05/16 12:18:33;;;;;;;;;;;;;;;20.11;nan;101527.94;5024670;28;20185;-78
2023/05/16 12:20:58;;;;;;;;;;;;;;;20.09;nan;101528.19;5022801;28;20392;-80
2023/05/16 12:23:25;;;;;;;;;;;;;;;20.11;nan;101526.03;5026961;28;20438;-80
2023/05/16 12:25:52;;;;;;;;;;;;;;;20.13;nan;101529.25;5023030;28;20011;-80
2023/05/16 12:28:18;;;;;;;;;;;;;;;20.17;nan;101530.28;5026606;28;20123;-78
2023/05/16 12:30:43;;;;;;;;;;;;;;;20.25;nan;101533.44;5024672;28;19944;-79
2023/05/16 12:33:10;;;;;;;;;;;;;;;20.23;nan;101528.28;5025590;28;19929;-82
2023/05/16 12:35:42;;;;;;;;;;;;;;;20.18;nan;101531.91;5025359;28;19920;-80
2023/05/16 12:38:09;;;;;;;;;;;;;;;20.12;nan;101535.81;5026107;28;19921;-80
2023/05/16 12:40:35;;;;;;;;;;;;;;;20.12;nan;101541.25;5025296;28;20297;-79
2023/05/16 12:43:01;;;;;;;;;;;;;;;20.19;nan;101543.59;5024267;28;19975;-79
2023/05/16 12:45:26;;;;;;;;;;;;;;;20.27;nan;101561.16;5022334;28;19960;-81
2023/05/16 12:47:52;;;;;;;;;;;;;;;20.35;nan;101552.34;5024788;28;20407;-83
2023/05/16 12:50:17;;;;;;;;;;;;;;;20.25;nan;101564.19;5016795;28;19975;-80
2023/05/16 12:52:48;;;;;;;;;;;;;;;20.25;nan;101564.19;5024128;28;19944;-81